Time;durP1;ratioP1;P1;durP2;ratioP2;P2;SDS_P1;SDS_P2;PMS_P1;PMS_P2;Temp;Humidity;BMP_temperature;BMP_pressure;BME280_temperature;BME280_humidity;BME280_pressure;Samples;Min_cycle;Max_cycle;Signal;HPM_P1;HPM_P2
2022/10/14 00:00:35;;;;;;;0.10;0.10;;;;;;;;;;4957554;28;20043;-89
2022/10/14 00:03:01;;;;;;;0.10;0.10;;;;;;;;;;4941643;28;20113;-88
2022/10/14 00:05:27;;;;;;;0.10;0.10;;;;;;;;;;4941641;28;20038;-88
2022/10/14 00:07:53;;;;;;;0.10;0.10;;;;;;;;;;4957467;28;20519;-88
2022/10/14 00:10:19;;;;;;;0.10;0.10;;;;;;;;;;4957722;28;20070;-88
2022/10/14 00:12:46;;;;;;;0.10;0.10;;;;;;;;;;4941128;28;20484;-88
2022/10/14 00:15:12;;;;;;;0.10;0.10;;;;;;;;;;4957395;28;20592;-88
2022/10/14 00:17:38;;;;;;;0.17;0.17;;;;;;;;;;4941310;28;20086;-89
2022/10/14 00:20:05;;;;;;;0.30;0.30;;;;;;;;;;4941348;28;20049;-88
2022/10/14 00:22:31;;;;;;;0.10;0.10;;;;;;;;;;4941274;28;20039;-88
2022/10/14 00:24:57;;;;;;;0.10;0.10;;;;;;;;;;4957256;28;20045;-89
2022/10/14 00:27:22;;;;;;;0.10;0.10;;;;;;;;;;4957000;28;20043;-88
2022/10/14 00:29:48;;;;;;;0.10;0.10;;;;;;;;;;4941093;28;20049;-89
2022/10/14 00:32:14;;;;;;;0.10;0.10;;;;;;;;;;4941035;28;20125;-88
2022/10/14 00:34:41;;;;;;;0.32;0.32;;;;;;;;;;4941245;28;20142;-89
2022/10/14 00:37:06;;;;;;;0.10;0.10;;;;;;;;;;4941010;28;20097;-88
2022/10/14 00:39:32;;;;;;;0.10;0.10;;;;;;;;;;4940996;28;20043;-88
2022/10/14 00:41:58;;;;;;;0.10;0.10;;;;;;;;;;4957045;28;20045;-88
2022/10/14 00:44:24;;;;;;;0.10;0.10;;;;;;;;;;4956883;28;20058;-88
2022/10/14 00:46:50;;;;;;;0.10;0.10;;;;;;;;;;4972791;28;20555;-88
2022/10/14 00:49:23;;;;;;;0.10;0.10;;;;;;;;;;4940647;28;20046;-88
2022/10/14 00:51:54;;;;;;;0.10;0.10;;;;;;;;;;4956657;28;20047;-88
2022/10/14 00:54:21;;;;;;;0.10;0.10;;;;;;;;;;4940570;28;20047;-89
2022/10/14 00:56:47;;;;;;;0.20;0.20;;;;;;;;;;4940653;28;20097;-88
2022/10/14 00:59:13;;;;;;;0.10;0.10;;;;;;;;;;4940770;28;20046;-89
2022/10/14 01:01:39;;;;;;;0.10;0.10;;;;;;;;;;4956696;28;20053;-88
2022/10/14 01:04:05;;;;;;;0.10;0.10;;;;;;;;;;4940514;28;20532;-89
2022/10/14 01:06:34;;;;;;;0.10;0.10;;;;;;;;;;4940539;28;20046;-88
2022/10/14 01:09:04;;;;;;;0.10;0.10;;;;;;;;;;4956174;28;20049;-89
2022/10/14 01:11:35;;;;;;;0.65;0.47;;;;;;;;;;4940373;28;20046;-89
2022/10/14 01:14:16;;;;;;;0.10;0.10;;;;;;;;;;4940179;28;20492;-89
2022/10/14 01:16:55;;;;;;;0.10;0.10;;;;;;;;;;4940408;28;20035;-89
2022/10/14 01:19:27;;;;;;;0.10;0.10;;;;;;;;;;4972341;28;20803;-89
2022/10/14 01:22:12;;;;;;;0.10;0.10;;;;;;;;;;4956162;28;20093;-89
2022/10/14 01:24:42;;;;;;;0.10;0.10;;;;;;;;;;4972142;28;20050;-90
2022/10/14 01:27:27;;;;;;;0.10;0.10;;;;;;;;;;4940429;28;20400;-90
2022/10/14 01:29:59;;;;;;;0.10;0.10;;;;;;;;;;4955746;28;20055;-89
2022/10/14 01:32:29;;;;;;;0.10;0.10;;;;;;;;;;4956087;28;20039;-89
2022/10/14 01:35:00;;;;;;;0.10;0.10;;;;;;;;;;4940310;28;20050;-90
2022/10/14 01:37:26;;;;;;;0.10;0.10;;;;;;;;;;4940138;28;20035;-89
2022/10/14 01:39:53;;;;;;;0.10;0.10;;;;;;;;;;4955978;28;20046;-89
2022/10/14 01:42:20;;;;;;;0.10;0.10;;;;;;;;;;4939677;28;20054;-90
2022/10/14 01:44:47;;;;;;;0.20;0.20;;;;;;;;;;4939818;28;20059;-90
2022/10/14 01:47:13;;;;;;;0.10;0.10;;;;;;;;;;4940075;28;20043;-90
2022/10/14 01:49:41;;;;;;;0.20;0.20;;;;;;;;;;4939818;28;20050;-89
2022/10/14 01:52:08;;;;;;;0.10;0.10;;;;;;;;;;4939838;28;20035;-90
2022/10/14 01:54:35;;;;;;;0.10;0.10;;;;;;;;;;4955973;28;20125;-90
2022/10/14 01:57:02;;;;;;;0.10;0.10;;;;;;;;;;4940101;28;20125;-91
2022/10/14 01:59:28;;;;;;;0.10;0.10;;;;;;;;;;4972144;28;20053;-90
2022/10/14 02:01:55;;;;;;;0.10;0.10;;;;;;;;;;4939908;28;20039;-91
2022/10/14 02:04:21;;;;;;;0.10;0.10;;;;;;;;;;4955919;28;20087;-91
2022/10/14 02:06:52;;;;;;;0.10;0.10;;;;;;;;;;4955772;28;20038;-91
2022/10/14 02:09:22;;;;;;;0.10;0.10;;;;;;;;;;4955689;28;20050;-90
2022/10/14 02:12:24;;;;;;;0.10;0.10;;;;;;;;;;4940112;28;20440;-90
2022/10/14 02:14:52;;;;;;;0.10;0.10;;;;;;;;;;4901003;29;20393;-91
2022/10/14 02:17:22;;;;;;;0.10;0.10;;;;;;;;;;4944788;28;20054;-91
2022/10/14 02:20:02;;;;;;;0.10;0.10;;;;;;;;;;4955700;28;20106;-91
2022/10/14 02:22:32;;;;;;;0.10;0.10;;;;;;;;;;4939964;28;20046;-91
2022/10/14 02:25:00;;;;;;;0.10;0.10;;;;;;;;;;4955570;28;20492;-91
2022/10/14 02:27:26;;;;;;;0.10;0.10;;;;;;;;;;4941692;28;20109;-89
2022/10/14 02:29:52;;;;;;;0.10;0.10;;;;;;;;;;4943292;28;20101;-89
2022/10/14 02:32:18;;;;;;;0.10;0.10;;;;;;;;;;4959011;28;20039;-89
2022/10/14 02:34:45;;;;;;;0.10;0.10;;;;;;;;;;4959229;28;20081;-89
2022/10/14 02:37:11;;;;;;;0.10;0.10;;;;;;;;;;4943124;28;20058;-88
2022/10/14 02:39:39;;;;;;;0.10;0.10;;;;;;;;;;4943058;28;20049;-88
2022/10/14 02:42:05;;;;;;;0.10;0.10;;;;;;;;;;4959139;28;20509;-87
2022/10/14 02:44:31;;;;;;;0.10;0.10;;;;;;;;;;4943060;28;20069;-87
2022/10/14 02:46:57;;;;;;;0.10;0.10;;;;;;;;;;4974960;28;20133;-88
2022/10/14 02:49:23;;;;;;;0.10;0.10;;;;;;;;;;4942934;28;20144;-87
2022/10/14 02:51:49;;;;;;;0.10;0.10;;;;;;;;;;4942857;28;20496;-88
2022/10/14 02:54:15;;;;;;;0.10;0.10;;;;;;;;;;4958867;28;20128;-88
2022/10/14 02:56:41;;;;;;;0.10;0.10;;;;;;;;;;4943057;28;20177;-88
2022/10/14 02:59:07;;;;;;;0.10;0.10;;;;;;;;;;4958771;28;20054;-87
2022/10/14 03:01:33;;;;;;;0.10;0.10;;;;;;;;;;4942573;28;20046;-89
2022/10/14 03:03:59;;;;;;;0.10;0.10;;;;;;;;;;4942552;28;20091;-89
2022/10/14 03:06:25;;;;;;;0.10;0.10;;;;;;;;;;4942604;28;20042;-88
2022/10/14 03:08:51;;;;;;;0.10;0.10;;;;;;;;;;4942438;28;20047;-88
2022/10/14 03:11:17;;;;;;;0.10;0.10;;;;;;;;;;4942639;28;20367;-88
2022/10/14 03:13:43;;;;;;;0.10;0.10;;;;;;;;;;4942637;28;20174;-89
2022/10/14 03:16:09;;;;;;;0.10;0.10;;;;;;;;;;4942324;28;20046;-89
2022/10/14 03:18:35;;;;;;;0.10;0.10;;;;;;;;;;4958604;28;20579;-89
2022/10/14 03:21:01;;;;;;;0.10;0.10;;;;;;;;;;4942556;28;20138;-89
2022/10/14 03:23:27;;;;;;;0.10;0.10;;;;;;;;;;4942267;28;20093;-87
2022/10/14 03:25:53;;;;;;;0.10;0.10;;;;;;;;;;4942683;28;20133;-88
2022/10/14 03:28:19;;;;;;;0.10;0.10;;;;;;;;;;4958002;28;20122;-90
2022/10/14 03:30:45;;;;;;;0.15;0.15;;;;;;;;;;4942056;28;20480;-88
2022/10/14 03:33:11;;;;;;;0.10;0.10;;;;;;;;;;4957938;28;20078;-88
2022/10/14 03:35:37;;;;;;;0.10;0.10;;;;;;;;;;4958180;28;20411;-88
2022/10/14 03:38:05;;;;;;;0.10;0.10;;;;;;;;;;4941602;28;20098;-88
2022/10/14 03:40:31;;;;;;;0.10;0.10;;;;;;;;;;4958061;28;20413;-88
2022/10/14 03:42:59;;;;;;;0.10;0.10;;;;;;;;;;4957902;28;20412;-88
2022/10/14 03:45:24;;;;;;;0.10;0.10;;;;;;;;;;4941790;28;20066;-88
2022/10/14 03:47:50;;;;;;;0.10;0.10;;;;;;;;;;4941816;28;20043;-88
2022/10/14 03:50:16;;;;;;;0.10;0.10;;;;;;;;;;4941853;28;20050;-88
2022/10/14 03:52:42;;;;;;;0.10;0.10;;;;;;;;;;4957981;28;20129;-88
2022/10/14 03:55:09;;;;;;;0.10;0.10;;;;;;;;;;4957811;28;20170;-88
2022/10/14 03:57:35;;;;;;;0.10;0.10;;;;;;;;;;4957608;28;20043;-88
2022/10/14 04:00:00;;;;;;;0.10;0.10;;;;;;;;;;4957955;28;20338;-88
2022/10/14 04:02:26;;;;;;;0.10;0.10;;;;;;;;;;4957736;28;20050;-88
2022/10/14 04:04:52;;;;;;;0.10;0.10;;;;;;;;;;4941900;28;20046;-90
2022/10/14 04:07:18;;;;;;;0.10;0.10;;;;;;;;;;4957907;28;20050;-89
2022/10/14 04:09:44;;;;;;;0.10;0.10;;;;;;;;;;4958629;28;20106;-89
2022/10/14 04:12:10;;;;;;;0.10;0.10;;;;;;;;;;4941613;28;20034;-91
2022/10/14 04:14:36;;;;;;;0.10;0.10;;;;;;;;;;4941394;28;20045;-89
2022/10/14 04:17:02;;;;;;;0.10;0.10;;;;;;;;;;4941424;28;20039;-90
2022/10/14 04:19:28;;;;;;;0.10;0.10;;;;;;;;;;4957575;28;20105;-90
2022/10/14 04:21:54;;;;;;;0.10;0.10;;;;;;;;;;4957306;28;20484;-90
2022/10/14 04:24:21;;;;;;;0.10;0.10;;;;;;;;;;4957450;28;20046;-90
2022/10/14 04:26:49;;;;;;;0.10;0.10;;;;;;;;;;4956671;28;20273;-88
2022/10/14 04:29:15;;;;;;;0.10;0.10;;;;;;;;;;4957176;28;20146;-88
2022/10/14 04:31:41;;;;;;;0.10;0.10;;;;;;;;;;4957049;28;20512;-88
2022/10/14 04:34:07;;;;;;;0.10;0.10;;;;;;;;;;4940918;28;20404;-88
2022/10/14 04:36:33;;;;;;;0.10;0.10;;;;;;;;;;4956827;28;20121;-89
2022/10/14 04:38:59;;;;;;;0.10;0.10;;;;;;;;;;4940859;28;20299;-88
2022/10/14 04:41:25;;;;;;;0.10;0.10;;;;;;;;;;4940622;28;20126;-89
2022/10/14 04:43:50;;;;;;;0.10;0.10;;;;;;;;;;4940731;28;20416;-88
2022/10/14 04:46:17;;;;;;;0.10;0.10;;;;;;;;;;4940883;28;20137;-88
2022/10/14 04:48:43;;;;;;;0.10;0.10;;;;;;;;;;4924729;28;20054;-88
2022/10/14 04:51:09;;;;;;;0.10;0.10;;;;;;;;;;4940265;28;20543;-88
2022/10/14 04:53:35;;;;;;;0.10;0.10;;;;;;;;;;4924952;28;20500;-89
2022/10/14 04:56:01;;;;;;;0.10;0.10;;;;;;;;;;4940550;28;20038;-88
2022/10/14 04:58:27;;;;;;;0.10;0.10;;;;;;;;;;4940490;28;20047;-89
2022/10/14 05:00:54;;;;;;;0.85;0.20;;;;;;;;;;4940437;28;20084;-88
2022/10/14 05:03:20;;;;;;;0.60;0.60;;;;;;;;;;4924630;28;20484;-88
2022/10/14 05:05:45;;;;;;;0.10;0.10;;;;;;;;;;4924649;28;20134;-87
2022/10/14 05:08:11;;;;;;;0.10;0.10;;;;;;;;;;4924719;28;20480;-88
2022/10/14 05:10:38;;;;;;;0.38;0.25;;;;;;;;;;4940306;28;20129;-88
2022/10/14 05:13:04;;;;;;;0.10;0.10;;;;;;;;;;4924663;28;20045;-88
2022/10/14 05:15:30;;;;;;;0.32;0.30;;;;;;;;;;4924905;28;20038;-88
2022/10/14 05:17:56;;;;;;;0.20;0.20;;;;;;;;;;4940418;28;20121;-88
2022/10/14 05:20:22;;;;;;;0.10;0.10;;;;;;;;;;4940155;28;20495;-88
2022/10/14 05:22:48;;;;;;;0.10;0.10;;;;;;;;;;4940314;28;20077;-89
2022/10/14 05:25:14;;;;;;;0.20;0.20;;;;;;;;;;4956146;28;20376;-89
2022/10/14 05:27:40;;;;;;;0.10;0.10;;;;;;;;;;4940171;28;20041;-88
2022/10/14 05:30:06;;;;;;;0.10;0.10;;;;;;;;;;4956197;28;20047;-89
2022/10/14 05:32:32;;;;;;;0.10;0.10;;;;;;;;;;4924505;28;20096;-89
2022/10/14 05:34:59;;;;;;;0.10;0.10;;;;;;;;;;4924273;28;20133;-88
2022/10/14 05:37:25;;;;;;;0.20;0.20;;;;;;;;;;4956008;28;20179;-87
2022/10/14 05:39:51;;;;;;;0.10;0.10;;;;;;;;;;4924179;28;20424;-87
2022/10/14 05:42:17;;;;;;;0.10;0.10;;;;;;;;;;4924269;28;20038;-88
2022/10/14 05:44:43;;;;;;;0.10;0.10;;;;;;;;;;4924275;28;20219;-88
2022/10/14 05:47:09;;;;;;;0.10;0.10;;;;;;;;;;4924241;28;20129;-88
2022/10/14 05:49:35;;;;;;;0.10;0.10;;;;;;;;;;4924221;28;20042;-88
2022/10/14 05:52:01;;;;;;;0.10;0.10;;;;;;;;;;4924335;28;20049;-89
2022/10/14 05:54:27;;;;;;;0.20;0.20;;;;;;;;;;4924236;28;20078;-87
2022/10/14 05:56:53;;;;;;;0.10;0.10;;;;;;;;;;4941384;28;20397;-89
2022/10/14 05:59:19;;;;;;;0.10;0.10;;;;;;;;;;4939954;28;20081;-89
2022/10/14 06:01:45;;;;;;;0.10;0.10;;;;;;;;;;4926652;28;20043;-87
2022/10/14 06:04:16;;;;;;;0.10;0.10;;;;;;;;;;4943844;28;20135;-87
2022/10/14 06:06:42;;;;;;;0.10;0.10;;;;;;;;;;4943608;28;20072;-87
2022/10/14 06:09:08;;;;;;;0.10;0.10;;;;;;;;;;4927888;28;20074;-87
2022/10/14 06:11:34;;;;;;;0.22;0.22;;;;;;;;;;4928059;28;20055;-87
2022/10/14 06:14:00;;;;;;;0.10;0.10;;;;;;;;;;4927757;28;20050;-88
2022/10/14 06:16:26;;;;;;;0.20;0.20;;;;;;;;;;4959425;28;20042;-88
2022/10/14 06:18:52;;;;;;;0.10;0.10;;;;;;;;;;4927806;28;20511;-87
2022/10/14 06:21:18;;;;;;;0.10;0.10;;;;;;;;;;4927682;28;20121;-87
2022/10/14 06:23:44;;;;;;;0.10;0.10;;;;;;;;;;4959448;28;20046;-87
2022/10/14 06:26:10;;;;;;;0.10;0.10;;;;;;;;;;4943426;28;20050;-88
2022/10/14 06:28:36;;;;;;;0.10;0.10;;;;;;;;;;4943146;28;20097;-89
2022/10/14 06:31:03;;;;;;;0.10;0.10;;;;;;;;;;4943524;28;20074;-89
2022/10/14 06:33:29;;;;;;;0.57;0.57;;;;;;;;;;4943355;28;20074;-90
2022/10/14 06:35:55;;;;;;;0.10;0.10;;;;;;;;;;4927250;28;20151;-88
2022/10/14 06:38:21;;;;;;;0.10;0.10;;;;;;;;;;4927390;28;20051;-87
2022/10/14 06:40:51;;;;;;;0.30;0.30;;;;;;;;;;4927381;28;20439;-88
2022/10/14 06:43:17;;;;;;;0.10;0.10;;;;;;;;;;4927366;28;20125;-88
2022/10/14 06:45:43;;;;;;;0.10;0.10;;;;;;;;;;4942800;28;20101;-88
2022/10/14 06:48:09;;;;;;;0.10;0.10;;;;;;;;;;4927075;28;20101;-88
2022/10/14 06:50:35;;;;;;;0.20;0.20;;;;;;;;;;4943049;28;20440;-88
2022/10/14 06:53:01;;;;;;;0.10;0.10;;;;;;;;;;4942895;28;20392;-87
2022/10/14 06:55:27;;;;;;;0.10;0.10;;;;;;;;;;4942908;28;20038;-88
2022/10/14 06:57:54;;;;;;;0.10;0.10;;;;;;;;;;4942844;28;20472;-87
2022/10/14 07:00:20;;;;;;;0.15;0.15;;;;;;;;;;4958894;28;20046;-89
2022/10/14 07:02:46;;;;;;;0.30;0.30;;;;;;;;;;4942804;28;20562;-89
2022/10/14 07:05:12;;;;;;;0.30;0.30;;;;;;;;;;4926840;28;20081;-87
2022/10/14 07:07:38;;;;;;;0.10;0.10;;;;;;;;;;4926902;28;20202;-87
2022/10/14 07:10:04;;;;;;;0.10;0.10;;;;;;;;;;4942672;28;20122;-89
2022/10/14 07:12:30;;;;;;;0.20;0.20;;;;;;;;;;4942036;28;20042;-90
2022/10/14 07:14:56;;;;;;;0.10;0.10;;;;;;;;;;4926977;28;20515;-89
2022/10/14 07:17:22;;;;;;;0.10;0.10;;;;;;;;;;4926837;28;20049;-88
2022/10/14 07:19:48;;;;;;;0.10;0.10;;;;;;;;;;4927096;28;20038;-88
2022/10/14 07:22:15;;;;;;;0.10;0.10;;;;;;;;;;4942676;28;20078;-89
2022/10/14 07:24:41;;;;;;;0.10;0.10;;;;;;;;;;4926749;28;20046;-89
2022/10/14 07:27:08;;;;;;;0.10;0.10;;;;;;;;;;4926525;28;20043;-88
2022/10/14 07:29:34;;;;;;;0.35;0.20;;;;;;;;;;4942226;28;20070;-89
2022/10/14 07:32:00;;;;;;;0.10;0.10;;;;;;;;;;4942491;28;20416;-89
2022/10/14 07:34:28;;;;;;;1.13;0.20;;;;;;;;;;4926344;28;20035;-88
2022/10/14 07:36:54;;;;;;;0.10;0.10;;;;;;;;;;4926633;28;20100;-85
2022/10/14 07:39:20;;;;;;;0.10;0.10;;;;;;;;;;4942160;28;20055;-87
2022/10/14 07:41:47;;;;;;;0.75;0.20;;;;;;;;;;4957993;28;20122;-88
2022/10/14 07:44:14;;;;;;;0.20;0.20;;;;;;;;;;4926509;28;20051;-89
2022/10/14 07:46:42;;;;;;;0.10;0.10;;;;;;;;;;4926253;28;20047;-89
2022/10/14 07:49:10;;;;;;;0.10;0.10;;;;;;;;;;4941983;28;20035;-88
2022/10/14 07:51:36;;;;;;;0.10;0.10;;;;;;;;;;4926156;28;20038;-88
2022/10/14 07:54:02;;;;;;;0.10;0.10;;;;;;;;;;4941889;28;20108;-88
2022/10/14 07:56:28;;;;;;;0.10;0.10;;;;;;;;;;4941927;28;20035;-88
2022/10/14 07:58:54;;;;;;;0.95;0.20;;;;;;;;;;4941918;28;20539;-90
2022/10/14 08:01:20;;;;;;;0.10;0.10;;;;;;;;;;4941904;28;20047;-92
2022/10/14 08:03:47;;;;;;;0.10;0.10;;;;;;;;;;4925891;28;20043;-92
2022/10/14 08:06:13;;;;;;;0.20;0.20;;;;;;;;;;4926534;28;20046;-88
2022/10/14 08:08:39;;;;;;;0.10;0.10;;;;;;;;;;4941896;28;20289;-89
2022/10/14 08:11:06;;;;;;;0.10;0.10;;;;;;;;;;4925650;28;20109;-88
2022/10/14 08:13:32;;;;;;;0.10;0.10;;;;;;;;;;4925580;28;20049;-90
2022/10/14 08:15:58;;;;;;;0.10;0.10;;;;;;;;;;4925455;28;20046;-88
2022/10/14 08:18:25;;;;;;;0.10;0.10;;;;;;;;;;4925639;28;20078;-87
2022/10/14 08:20:51;;;;;;;0.10;0.10;;;;;;;;;;4941334;28;20187;-87
2022/10/14 08:23:17;;;;;;;0.10;0.10;;;;;;;;;;4941280;28;20492;-89
2022/10/14 08:25:43;;;;;;;0.20;0.20;;;;;;;;;;4925499;28;20074;-88
2022/10/14 08:28:09;;;;;;;0.10;0.10;;;;;;;;;;4941267;28;20074;-89
2022/10/14 08:30:35;;;;;;;0.20;0.20;;;;;;;;;;4940726;28;20062;-90
2022/10/14 08:33:01;;;;;;;0.25;0.25;;;;;;;;;;4925829;28;20461;-89
2022/10/14 08:35:27;;;;;;;0.10;0.10;;;;;;;;;;4941126;28;20047;-89
2022/10/14 08:37:59;;;;;;;0.10;0.10;;;;;;;;;;4941654;28;20039;-91
2022/10/14 08:40:27;;;;;;;0.10;0.10;;;;;;;;;;4941099;28;20190;-91
2022/10/14 08:43:12;;;;;;;0.10;0.10;;;;;;;;;;4925282;28;20093;-91
2022/10/14 08:45:39;;;;;;;0.32;0.32;;;;;;;;;;4940714;28;20515;-90
2022/10/14 08:48:09;;;;;;;0.10;0.10;;;;;;;;;;4941240;28;20491;-88
2022/10/14 08:50:40;;;;;;;0.10;0.10;;;;;;;;;;4925243;28;20195;-92
2022/10/14 08:53:10;;;;;;;0.10;0.10;;;;;;;;;;4941455;28;20124;-91
2022/10/14 08:55:38;;;;;;;0.10;0.10;;;;;;;;;;4941500;28;20065;-91
2022/10/14 08:58:14;;;;;;;0.10;0.10;;;;;;;;;;4956996;28;20042;-91
2022/10/14 09:00:41;;;;;;;0.38;0.38;;;;;;;;;;4925003;28;20408;-90
2022/10/14 09:03:13;;;;;;;0.10;0.10;;;;;;;;;;4940871;28;20034;-90
2022/10/14 09:05:39;;;;;;;0.20;0.20;;;;;;;;;;4956541;28;20048;-90
2022/10/14 09:08:05;;;;;;;0.10;0.10;;;;;;;;;;4940655;28;20146;-88
2022/10/14 09:10:31;;;;;;;0.10;0.10;;;;;;;;;;4940393;28;20439;-90
2022/10/14 09:12:58;;;;;;;0.10;0.10;;;;;;;;;;4940428;28;20038;-89
2022/10/14 09:15:27;;;;;;;0.10;0.10;;;;;;;;;;4940467;28;20042;-88
2022/10/14 09:18:01;;;;;;;0.10;0.10;;;;;;;;;;4940443;28;20117;-89
2022/10/14 09:20:27;;;;;;;0.10;0.10;;;;;;;;;;4940697;28;20039;-88
2022/10/14 09:23:14;;;;;;;0.10;0.10;;;;;;;;;;4940384;28;20358;-90
2022/10/14 09:25:41;;;;;;;0.20;0.20;;;;;;;;;;4940162;28;20538;-90
2022/10/14 09:28:07;;;;;;;0.25;0.25;;;;;;;;;;4924675;28;20396;-90
2022/10/14 09:30:35;;;;;;;0.20;0.20;;;;;;;;;;4940274;28;20129;-91
2022/10/14 09:33:02;;;;;;;0.10;0.10;;;;;;;;;;4924238;28;20070;-90
2022/10/14 09:35:29;;;;;;;0.10;0.10;;;;;;;;;;4940894;28;20043;-91
2022/10/14 09:37:55;;;;;;;0.20;0.20;;;;;;;;;;4939039;28;20073;-91
2022/10/14 09:40:24;;;;;;;0.10;0.10;;;;;;;;;;4944039;28;20081;-92
2022/10/14 09:42:52;;;;;;;0.30;0.30;;;;;;;;;;4939400;28;20050;-91
2022/10/14 09:45:21;;;;;;;0.20;0.20;;;;;;;;;;4925042;28;20066;-90
2022/10/14 09:47:52;;;;;;;0.10;0.10;;;;;;;;;;4925233;28;20058;-91
2022/10/14 09:50:23;;;;;;;0.22;0.22;;;;;;;;;;4940607;28;20085;-90
2022/10/14 09:52:53;;;;;;;0.10;0.10;;;;;;;;;;4924953;28;20069;-89
2022/10/14 09:55:20;;;;;;;0.13;0.13;;;;;;;;;;4940228;28;20279;-90
2022/10/14 09:57:46;;;;;;;0.10;0.10;;;;;;;;;;4955960;28;20053;-90
2022/10/14 10:00:47;;;;;;;0.10;0.10;;;;;;;;;;4940714;28;20302;-95
2022/10/14 10:03:26;;;;;;;0.10;0.10;;;;;;;;;;4933995;28;20054;-94
2022/10/14 10:06:06;;;;;;;0.10;0.10;;;;;;;;;;4941064;28;20046;-91
2022/10/14 10:11:42;;;;;;;0.10;0.10;;;;;;;;;;4997251;23;20460;-93
2022/10/14 10:14:29;;;;;;;0.20;0.20;;;;;;;;;;4926147;28;20462;-93
2022/10/14 10:17:08;;;;;;;0.43;0.20;;;;;;;;;;4941088;28;20124;-93
2022/10/14 10:19:42;;;;;;;0.10;0.10;;;;;;;;;;4956007;28;20066;-91
2022/10/14 10:22:17;;;;;;;0.10;0.10;;;;;;;;;;4939836;28;20038;-87
2022/10/14 10:24:43;;;;;;;0.10;0.10;;;;;;;;;;4958089;28;20034;-87
2022/10/14 10:27:26;;;;;;;0.10;0.10;;;;;;;;;;4940876;28;20042;-89
2022/10/14 10:29:54;;;;;;;0.10;0.10;;;;;;;;;;4926164;28;20043;-89
2022/10/14 10:32:53;;;;;;;0.30;0.30;;;;;;;;;;4940888;28;20065;-89
2022/10/14 10:35:31;;;;;;;0.10;0.10;;;;;;;;;;4909258;28;20053;-90
2022/10/14 10:37:57;;;;;;;0.10;0.10;;;;;;;;;;4943542;28;20062;-91
2022/10/14 10:40:31;;;;;;;0.10;0.10;;;;;;;;;;4942879;28;20066;-90
2022/10/14 10:42:57;;;;;;;0.10;0.10;;;;;;;;;;4944302;29;20090;-92
2022/10/14 10:45:36;;;;;;;6.18;0.32;;;;;;;;;;4936412;29;20050;-90
2022/10/14 10:48:08;;;;;;;0.10;0.10;;;;;;;;;;4921581;29;20062;-90
2022/10/14 10:50:41;;;;;;;0.55;0.55;;;;;;;;;;4923963;29;20039;-88
2022/10/14 10:53:28;;;;;;;0.10;0.10;;;;;;;;;;4929140;29;20043;-90
2022/10/14 10:55:59;;;;;;;0.55;0.55;;;;;;;;;;4934074;28;20485;-92
2022/10/14 10:58:44;;;;;;;0.10;0.10;;;;;;;;;;4927633;28;20552;-91
2022/10/14 11:01:20;;;;;;;0.10;0.10;;;;;;;;;;4943475;28;20377;-93
2022/10/14 11:03:52;;;;;;;0.10;0.10;;;;;;;;;;4957876;28;20051;-92
2022/10/14 11:12:13;;;;;;;0.10;0.10;;;;;;;;;;4943014;28;20055;-91
2022/10/14 11:14:45;;;;;;;0.30;0.30;;;;;;;;;;4940062;29;20053;-91
2022/10/14 11:17:11;;;;;;;0.10;0.10;;;;;;;;;;4939454;29;20042;-92
2022/10/14 11:19:53;;;;;;;0.20;0.20;;;;;;;;;;4941619;29;20050;-91
2022/10/14 11:22:19;;;;;;;0.40;0.40;;;;;;;;;;4940593;29;20471;-93
2022/10/14 11:24:45;;;;;;;0.17;0.17;;;;;;;;;;4940479;29;20058;-92
2022/10/14 11:27:12;;;;;;;0.10;0.10;;;;;;;;;;4955788;29;20130;-91
2022/10/14 11:29:38;;;;;;;0.10;0.10;;;;;;;;;;4955703;28;20044;-92
2022/10/14 11:32:10;;;;;;;0.20;0.20;;;;;;;;;;4939497;29;20392;-91
2022/10/14 11:34:54;;;;;;;0.10;0.10;;;;;;;;;;4939751;29;20035;-91
2022/10/14 11:37:27;;;;;;;0.10;0.10;;;;;;;;;;4939616;29;20134;-91
2022/10/14 11:40:20;;;;;;;0.20;0.20;;;;;;;;;;4956309;28;20524;-91
2022/10/14 11:43:05;;;;;;;0.10;0.10;;;;;;;;;;4937162;29;20089;-90
2022/10/14 11:45:51;;;;;;;0.25;0.25;;;;;;;;;;4955205;28;20186;-90
2022/10/14 11:48:28;;;;;;;0.20;0.20;;;;;;;;;;4939167;29;20051;-90
2022/10/14 11:51:05;;;;;;;0.10;0.10;;;;;;;;;;4938699;28;20042;-90
2022/10/14 11:53:39;;;;;;;0.10;0.10;;;;;;;;;;4939052;29;20493;-89
2022/10/14 11:56:35;;;;;;;0.17;0.17;;;;;;;;;;4955625;29;20043;-90
2022/10/14 11:59:02;;;;;;;0.55;0.47;;;;;;;;;;4938630;29;20047;-91
2022/10/14 12:01:29;;;;;;;0.10;0.10;;;;;;;;;;4923263;29;20477;-89
2022/10/14 12:03:58;;;;;;;0.25;0.25;;;;;;;;;;4922874;29;20039;-90
2022/10/14 12:06:33;;;;;;;0.20;0.20;;;;;;;;;;4938463;29;20043;-89
2022/10/14 12:09:09;;;;;;;0.10;0.10;;;;;;;;;;4922775;29;20098;-89
2022/10/14 12:11:35;;;;;;;0.10;0.10;;;;;;;;;;4938280;29;20057;-88
2022/10/14 12:14:10;;;;;;;0.10;0.10;;;;;;;;;;4938226;29;20126;-88
2022/10/14 12:16:37;;;;;;;0.20;0.20;;;;;;;;;;4938486;29;20458;-88
2022/10/14 12:19:03;;;;;;;0.10;0.10;;;;;;;;;;4922437;29;20130;-89
2022/10/14 12:21:29;;;;;;;0.10;0.10;;;;;;;;;;4922413;29;20138;-89
2022/10/14 12:23:56;;;;;;;0.57;0.25;;;;;;;;;;4938211;29;20086;-89
2022/10/14 12:26:22;;;;;;;0.10;0.10;;;;;;;;;;4922417;29;20039;-91
2022/10/14 12:28:48;;;;;;;0.10;0.10;;;;;;;;;;4953990;29;20140;-91
2022/10/14 12:31:30;;;;;;;0.20;0.20;;;;;;;;;;4938592;29;20540;-90
2022/10/14 12:34:14;;;;;;;0.10;0.10;;;;;;;;;;4938096;29;20039;-90
2022/10/14 12:36:44;;;;;;;0.20;0.20;;;;;;;;;;4954283;29;20043;-91
2022/10/14 12:39:16;;;;;;;0.38;0.38;;;;;;;;;;4923286;29;20079;-90
2022/10/14 12:41:42;;;;;;;0.20;0.20;;;;;;;;;;4954014;29;20043;-90
2022/10/14 12:44:13;;;;;;;0.10;0.10;;;;;;;;;;4953809;29;20047;-90
2022/10/14 12:46:43;;;;;;;0.20;0.20;;;;;;;;;;4938149;29;20101;-89
2022/10/14 12:49:15;;;;;;;0.28;0.28;;;;;;;;;;4937656;29;20043;-89
2022/10/14 12:51:51;;;;;;;0.20;0.20;;;;;;;;;;4921722;29;20432;-90
2022/10/14 12:54:17;;;;;;;0.10;0.10;;;;;;;;;;4921802;29;20050;-89
2022/10/14 12:56:44;;;;;;;0.13;0.13;;;;;;;;;;4921722;29;20039;-89
2022/10/14 12:59:20;;;;;;;0.10;0.10;;;;;;;;;;4921761;29;20101;-91
2022/10/14 13:01:46;;;;;;;0.20;0.20;;;;;;;;;;4953648;29;20515;-88
2022/10/14 13:04:17;;;;;;;0.10;0.10;;;;;;;;;;4937618;29;20054;-89
2022/10/14 13:06:43;;;;;;;0.13;0.13;;;;;;;;;;4922143;29;20047;-89
2022/10/14 13:09:12;;;;;;;0.10;0.10;;;;;;;;;;4937432;29;20103;-89
2022/10/14 13:11:39;;;;;;;0.10;0.10;;;;;;;;;;4936507;29;20497;-92
2022/10/14 13:14:26;;;;;;;0.10;0.10;;;;;;;;;;4921676;29;20051;-91
2022/10/14 13:16:52;;;;;;;0.45;0.45;;;;;;;;;;4937945;29;20389;-89
2022/10/14 13:19:47;;;;;;;0.10;0.10;;;;;;;;;;4937175;29;20047;-88
2022/10/14 13:22:30;;;;;;;0.25;0.25;;;;;;;;;;4940840;29;20055;-88
2022/10/14 13:25:08;;;;;;;0.17;0.17;;;;;;;;;;4952987;29;20496;-88
2022/10/14 13:27:36;;;;;;;0.25;0.20;;;;;;;;;;4921804;29;20514;-89
2022/10/14 13:30:11;;;;;;;0.20;0.20;;;;;;;;;;4921132;29;20134;-89
2022/10/14 13:32:37;;;;;;;0.10;0.10;;;;;;;;;;4921226;29;20054;-88
2022/10/14 13:35:06;;;;;;;0.10;0.10;;;;;;;;;;4937105;29;20047;-88
2022/10/14 13:37:36;;;;;;;0.20;0.20;;;;;;;;;;4921283;29;20081;-87
2022/10/14 13:40:21;;;;;;;0.20;0.20;;;;;;;;;;4937008;29;20090;-88
2022/10/14 13:42:50;;;;;;;0.22;0.22;;;;;;;;;;4952952;29;20051;-88
2022/10/14 13:45:16;;;;;;;0.10;0.10;;;;;;;;;;4920897;29;20519;-88
2022/10/14 13:47:46;;;;;;;1.92;0.32;;;;;;;;;;4936957;29;20047;-87
2022/10/14 13:50:12;;;;;;;0.10;0.10;;;;;;;;;;4921528;29;20233;-89
2022/10/14 13:52:39;;;;;;;0.10;0.10;;;;;;;;;;4921195;29;20110;-88
2022/10/14 13:55:06;;;;;;;0.10;0.10;;;;;;;;;;4921472;29;20126;-89
2022/10/14 13:57:32;;;;;;;0.10;0.10;;;;;;;;;;4952528;29;20440;-88
2022/10/14 13:59:58;;;;;;;0.10;0.10;;;;;;;;;;4952907;29;20047;-90
2022/10/14 14:02:25;;;;;;;0.50;0.50;;;;;;;;;;4936895;29;20488;-89
2022/10/14 14:04:51;;;;;;;0.20;0.20;;;;;;;;;;4936629;29;20035;-89
2022/10/14 14:07:18;;;;;;;0.10;0.10;;;;;;;;;;4936379;29;20094;-89
2022/10/14 14:09:47;;;;;;;0.28;0.28;;;;;;;;;;4920714;29;20105;-88
2022/10/14 14:12:13;;;;;;;0.20;0.20;;;;;;;;;;4919801;29;20071;-88
2022/10/14 14:14:40;;;;;;;1.75;0.43;;;;;;;;;;4936486;29;20051;-89
2022/10/14 14:17:07;;;;;;;0.10;0.10;;;;;;;;;;4936711;29;20401;-89
2022/10/14 14:19:34;;;;;;;0.10;0.10;;;;;;;;;;4920482;29;20106;-89
2022/10/14 14:22:18;;;;;;;0.10;0.10;;;;;;;;;;4937281;29;20050;-88
2022/10/14 14:24:44;;;;;;;0.10;0.10;;;;;;;;;;4939663;29;20050;-89
2022/10/14 14:27:12;;;;;;;0.10;0.10;;;;;;;;;;4924059;29;20047;-89
2022/10/14 14:29:40;;;;;;;0.22;0.22;;;;;;;;;;4940091;29;20094;-89
2022/10/14 14:32:06;;;;;;;0.20;0.20;;;;;;;;;;4939919;29;20090;-90
2022/10/14 14:34:32;;;;;;;0.10;0.10;;;;;;;;;;4940143;29;20090;-89
2022/10/14 14:36:59;;;;;;;0.17;0.17;;;;;;;;;;4939851;29;20043;-89
2022/10/14 14:39:26;;;;;;;0.10;0.10;;;;;;;;;;4924139;29;20125;-88
2022/10/14 14:41:53;;;;;;;0.10;0.10;;;;;;;;;;4939747;29;20129;-91
2022/10/14 14:44:23;;;;;;;0.10;0.10;;;;;;;;;;4924041;29;20071;-89
2022/10/14 14:46:49;;;;;;;0.10;0.10;;;;;;;;;;4923930;29;20043;-92
2022/10/14 14:49:16;;;;;;;0.10;0.10;;;;;;;;;;4923620;29;20047;-88
2022/10/14 14:51:42;;;;;;;0.10;0.10;;;;;;;;;;4939748;29;20539;-89
2022/10/14 14:54:12;;;;;;;0.20;0.20;;;;;;;;;;4923698;29;20039;-87
2022/10/14 14:56:39;;;;;;;0.10;0.10;;;;;;;;;;4956096;28;20046;-87
2022/10/14 14:59:09;;;;;;;0.20;0.20;;;;;;;;;;4958582;28;20042;-88
2022/10/14 15:01:35;;;;;;;0.10;0.10;;;;;;;;;;4958313;28;20492;-87